sensor_id;sensor_type;location;lat;lon;timestamp;pressure;altitude;pressure_sealevel;temperature;humidity
54918;BME280;40818;50.562;7.454;2023-11-22T07:56:25;98844.50;;;0.59;100.00
54918;BME280;40818;50.562;7.454;2023-11-22T08:06:29;98874.72;;;1.15;100.00
54918;BME280;40818;50.562;7.454;2023-11-22T08:16:35;98872.06;;;2.05;100.00
54918;BME280;40818;50.562;7.454;2023-11-22T08:26:42;98871.38;;;2.54;100.00
54918;BME280;40818;50.562;7.454;2023-11-22T08:36:49;98850.31;;;2.35;100.00
54918;BME280;40818;50.562;7.454;2023-11-22T08:46:52;98829.66;;;1.81;100.00
54918;BME280;40818;50.562;7.454;2023-11-22T08:56:58;98837.69;;;1.50;100.00
54918;BME280;40818;50.562;7.454;2023-11-22T09:07:02;98857.09;;;1.69;100.00
54918;BME280;40818;50.562;7.454;2023-11-22T09:17:08;98884.53;;;1.60;100.00
54918;BME280;40818;50.562;7.454;2023-11-22T09:27:12;98907.19;;;1.95;100.00
54918;BME280;40818;50.562;7.454;2023-11-22T09:37:21;98933.41;;;2.14;99.22
54918;BME280;40818;50.562;7.454;2023-11-22T09:47:26;98902.41;;;2.36;100.00
54918;BME280;40818;50.562;7.454;2023-11-22T09:57:33;98922.41;;;2.70;96.01
54918;BME280;40818;50.562;7.454;2023-11-22T10:07:40;98913.50;;;2.35;85.55
54918;BME280;40818;50.562;7.454;2023-11-22T10:17:55;98918.22;;;2.67;85.38
54918;BME280;40818;50.562;7.454;2023-11-22T10:28:01;98924.47;;;2.46;79.41
54918;BME280;40818;50.562;7.454;2023-11-22T10:38:10;98906.44;;;3.10;87.18
54918;BME280;40818;50.562;7.454;2023-11-22T10:48:14;98913.94;;;3.21;78.79
54918;BME280;40818;50.562;7.454;2023-11-22T10:58:22;98886.16;;;3.45;80.09
54918;BME280;40818;50.562;7.454;2023-11-22T11:08:26;98893.06;;;3.88;87.56
54918;BME280;40818;50.562;7.454;2023-11-22T11:18:35;98913.91;;;3.72;78.24
54918;BME280;40818;50.562;7.454;2023-11-22T11:28:42;98923.84;;;3.89;74.92
54918;BME280;40818;50.562;7.454;2023-11-22T11:38:51;98929.78;;;3.93;76.53
54918;BME280;40818;50.562;7.454;2023-11-22T11:48:54;98916.94;;;4.35;73.71
54918;BME280;40818;50.562;7.454;2023-11-22T11:59:01;98903.88;;;4.84;75.14
54918;BME280;40818;50.562;7.454;2023-11-22T12:09:05;98897.63;;;4.94;63.75
54918;BME280;40818;50.562;7.454;2023-11-22T12:19:12;98900.22;;;4.55;72.21
54918;BME280;40818;50.562;7.454;2023-11-22T12:29:24;98899.19;;;4.62;65.27
54918;BME280;40818;50.562;7.454;2023-11-22T12:39:30;98869.44;;;4.13;67.60
54918;BME280;40818;50.562;7.454;2023-11-22T12:49:43;98834.34;;;4.49;67.51
54918;BME280;40818;50.562;7.454;2023-11-22T12:59:49;98786.63;;;3.57;68.48
54918;BME280;40818;50.562;7.454;2023-11-22T13:09:52;98791.25;;;2.95;70.35
54918;BME280;40818;50.562;7.454;2023-11-22T13:19:58;98798.16;;;2.91;67.18
54918;BME280;40818;50.562;7.454;2023-11-22T13:30:03;98818.69;;;2.91;66.53
54918;BME280;40818;50.562;7.454;2023-11-22T13:40:11;98790.06;;;2.63;69.30
54918;BME280;40818;50.562;7.454;2023-11-22T13:50:18;98785.25;;;2.43;68.76
54918;BME280;40818;50.562;7.454;2023-11-22T14:00:26;98800.66;;;2.43;71.94
54918;BME280;40818;50.562;7.454;2023-11-22T14:10:33;98788.81;;;2.32;66.28
54918;BME280;40818;50.562;7.454;2023-11-22T14:20:39;98803.38;;;2.30;66.05
54918;BME280;40818;50.562;7.454;2023-11-22T14:30:43;98839.84;;;2.49;70.87
54918;BME280;40818;50.562;7.454;2023-11-22T14:40:49;98850.56;;;2.75;73.75
54918;BME280;40818;50.562;7.454;2023-11-22T14:50:52;98841.88;;;2.83;76.14
54918;BME280;40818;50.562;7.454;2023-11-22T15:00:58;98855.38;;;2.95;78.04
54918;BME280;40818;50.562;7.454;2023-11-22T15:11:06;98863.00;;;2.98;80.49
54918;BME280;40818;50.562;7.454;2023-11-22T15:21:13;98878.56;;;2.88;82.36
54918;BME280;40818;50.562;7.454;2023-11-22T15:31:16;98870.22;;;2.76;84.33
54918;BME280;40818;50.562;7.454;2023-11-22T15:41:26;98861.00;;;2.62;85.35
54918;BME280;40818;50.562;7.454;2023-11-22T15:51:29;98873.47;;;2.26;81.17
54918;BME280;40818;50.562;7.454;2023-11-22T16:01:35;98881.56;;;1.95;85.15
54918;BME280;40818;50.562;7.454;2023-11-22T16:11:39;98866.09;;;2.03;87.59
54918;BME280;40818;50.562;7.454;2023-11-22T16:21:45;98891.69;;;2.04;89.15
54918;BME280;40818;50.562;7.454;2023-11-22T16:31:48;98878.88;;;2.06;90.32
54918;BME280;40818;50.562;7.454;2023-11-22T16:41:54;98859.28;;;2.03;90.27
54918;BME280;40818;50.562;7.454;2023-11-22T16:51:58;98851.03;;;1.80;89.57
54918;BME280;40818;50.562;7.454;2023-11-22T17:02:05;98854.81;;;1.46;93.59
54918;BME280;40818;50.562;7.454;2023-11-22T17:12:09;98865.00;;;1.49;94.67
54918;BME280;40818;50.562;7.454;2023-11-22T17:22:15;98839.47;;;1.45;95.54
54918;BME280;40818;50.562;7.454;2023-11-22T17:32:19;98834.38;;;1.42;95.97
54918;BME280;40818;50.562;7.454;2023-11-22T17:42:25;98860.84;;;1.39;96.60
54918;BME280;40818;50.562;7.454;2023-11-22T17:52:29;98843.81;;;1.35;95.51
54918;BME280;40818;50.562;7.454;2023-11-22T18:02:35;98841.28;;;1.33;94.07
54918;BME280;40818;50.562;7.454;2023-11-22T18:12:39;98818.28;;;1.32;93.02
54918;BME280;40818;50.562;7.454;2023-11-22T18:22:45;98798.69;;;1.29;93.53
54918;BME280;40818;50.562;7.454;2023-11-22T18:32:49;98788.47;;;1.31;94.97
54918;BME280;40818;50.562;7.454;2023-11-22T18:42:55;98787.75;;;1.16;95.75
54918;BME280;40818;50.562;7.454;2023-11-22T18:52:58;98793.06;;;0.98;97.08
54918;BME280;40818;50.562;7.454;2023-11-22T19:03:05;98801.56;;;0.98;97.28
54918;BME280;40818;50.562;7.454;2023-11-22T19:13:08;98805.75;;;1.06;97.92
54918;BME280;40818;50.562;7.454;2023-11-22T19:23:15;98819.41;;;1.05;97.31
54918;BME280;40818;50.562;7.454;2023-11-22T19:33:19;98832.91;;;1.19;97.88
54918;BME280;40818;50.562;7.454;2023-11-22T19:43:25;98820.91;;;1.27;97.00
54918;BME280;40818;50.562;7.454;2023-11-22T19:53:29;98787.56;;;1.32;96.08
54918;BME280;40818;50.562;7.454;2023-11-22T20:03:35;98786.78;;;1.28;96.35
54918;BME280;40818;50.562;7.454;2023-11-22T20:13:38;98779.03;;;1.33;95.97
54918;BME280;40818;50.562;7.454;2023-11-22T20:23:45;98766.31;;;1.28;95.48
54918;BME280;40818;50.562;7.454;2023-11-22T20:33:49;98780.03;;;1.19;95.47
54918;BME280;40818;50.562;7.454;2023-11-22T20:43:55;98769.94;;;1.06;96.11
54918;BME280;40818;50.562;7.454;2023-11-22T20:54:00;98763.31;;;0.89;97.14
54918;BME280;40818;50.562;7.454;2023-11-22T21:04:06;98758.28;;;0.80;98.69
54918;BME280;40818;50.562;7.454;2023-11-22T21:14:10;98766.00;;;0.74;99.49
54918;BME280;40818;50.562;7.454;2023-11-22T21:24:16;98757.63;;;0.56;99.77
